createdAt,value
2022-12-01T00:00:32.265Z,28.83
2022-12-01T00:03:50.870Z,27.70
2022-12-01T00:06:53.002Z,29.87
2022-12-01T00:10:13.592Z,32.87
2022-12-01T00:13:15.825Z,25.83
2022-12-01T00:16:17.964Z,31.33
2022-12-01T00:19:19.975Z,27.70
2022-12-01T00:22:22.478Z,27.60
2022-12-01T00:25:36.150Z,29.13
2022-12-01T00:28:39.344Z,32.37
2022-12-01T00:31:49.040Z,26.33
2022-12-01T00:34:51.253Z,32.00
2022-12-01T00:37:55.559Z,26.03
2022-12-01T00:40:57.921Z,26.97
2022-12-01T00:44:00.091Z,25.70
2022-12-01T00:47:02.672Z,28.57
2022-12-01T00:50:05.353Z,26.83
2022-12-01T00:53:34.702Z,30.43
2022-12-01T00:56:43.182Z,27.17
2022-12-01T00:59:45.554Z,27.93
2022-12-01T01:02:47.973Z,29.37
2022-12-01T01:05:55.118Z,27.17
2022-12-01T01:08:57.288Z,26.50
2022-12-01T01:11:59.438Z,29.07
2022-12-01T01:15:02.063Z,27.60
2022-12-01T01:18:05.519Z,26.50
2022-12-01T01:21:11.912Z,29.73
2022-12-01T01:24:14.165Z,25.53
2022-12-01T01:27:16.547Z,27.33
2022-12-01T01:30:19.017Z,27.90
2022-12-01T01:33:21.084Z,25.63
2022-12-01T01:36:26.671Z,27.10
2022-12-01T01:39:35.035Z,29.67
2022-12-01T01:43:09.285Z,30.43
2022-12-01T01:46:23.090Z,28.17
2022-12-01T01:49:25.392Z,28.00
2022-12-01T01:52:28.444Z,30.33
2022-12-01T01:55:33.735Z,30.77
2022-12-01T01:58:37.565Z,31.77
2022-12-01T02:01:39.727Z,31.17
2022-12-01T02:05:00.419Z,31.83
2022-12-01T02:08:04.262Z,31.60
2022-12-01T02:11:18.484Z,32.77
2022-12-01T02:14:39.763Z,29.67
2022-12-01T02:17:49.586Z,27.50
2022-12-01T02:21:31.831Z,28.87
2022-12-01T02:24:54.815Z,30.10
2022-12-01T02:28:25.574Z,33.53
2022-12-01T02:31:57.524Z,35.47
2022-12-01T02:35:40.353Z,37.03
2022-12-01T02:39:14.533Z,32.53
2022-12-01T02:42:39.645Z,37.90
2022-12-01T02:45:54.514Z,34.40
2022-12-01T02:49:02.758Z,29.00
2022-12-01T02:52:08.172Z,33.47
2022-12-01T02:55:10.370Z,33.00
2022-12-01T02:58:14.971Z,31.40
2022-12-01T03:01:33.733Z,33.93
2022-12-01T03:04:55.974Z,31.97
2022-12-01T03:08:13.921Z,38.37
2022-12-01T03:11:29.422Z,33.23
2022-12-01T03:14:40.510Z,33.70
2022-12-01T03:17:57.087Z,33.33
2022-12-01T03:21:13.300Z,33.93
2022-12-01T03:24:23.772Z,29.67
2022-12-01T03:27:34.643Z,31.33
2022-12-01T03:30:39.052Z,31.93
2022-12-01T03:33:47.802Z,31.87
2022-12-01T03:36:57.927Z,30.40
2022-12-01T03:40:25.680Z,34.13
2022-12-01T03:43:48.874Z,32.90
2022-12-01T03:47:37.563Z,37.23
2022-12-01T03:51:00.877Z,36.00
2022-12-01T03:54:47.311Z,34.67
2022-12-01T03:58:03.230Z,33.03
2022-12-01T04:01:36.366Z,34.87
2022-12-01T04:04:54.344Z,35.10
2022-12-01T04:08:05.296Z,35.73
2022-12-01T04:12:06.257Z,38.97
2022-12-01T04:15:26.977Z,33.67
2022-12-01T04:18:35.284Z,37.37
2022-12-01T04:21:57.322Z,35.90
2022-12-01T04:25:06.966Z,34.57
2022-12-01T04:28:29.822Z,30.53
2022-12-01T04:32:29.258Z,33.80
2022-12-01T04:35:56.184Z,32.23
2022-12-01T04:39:26.385Z,29.70
2022-12-01T04:42:29.200Z,32.53
2022-12-01T04:45:48.997Z,34.43
2022-12-01T04:48:56.466Z,31.10
2022-12-01T04:51:59.276Z,40.63
2022-12-01T04:55:01.941Z,31.33
2022-12-01T04:58:09.826Z,36.00
2022-12-01T05:01:14.035Z,36.20
2022-12-01T05:04:16.645Z,42.03
2022-12-01T05:07:18.883Z,40.37
2022-12-01T05:10:23.486Z,38.50
2022-12-01T05:13:52.849Z,39.40
2022-12-01T05:17:08.520Z,46.73
2022-12-01T05:20:49.398Z,39.90
2022-12-01T05:24:12.369Z,36.23
2022-12-01T05:27:46.541Z,47.20
2022-12-01T05:31:15.095Z,46.43
2022-12-01T05:34:17.720Z,41.33
2022-12-01T05:37:35.084Z,39.23
2022-12-01T05:40:38.455Z,33.87
2022-12-01T05:43:43.542Z,31.40
2022-12-01T05:46:58.329Z,32.07
2022-12-01T05:50:08.780Z,29.37
2022-12-01T05:53:14.355Z,30.43
2022-12-01T05:57:02.488Z,27.40
2022-12-01T06:00:43.726Z,24.43
2022-12-01T06:04:05.093Z,25.57
2022-12-01T06:07:12.705Z,25.47
2022-12-01T06:10:15.331Z,29.90
2022-12-01T06:13:20.244Z,31.60
2022-12-01T06:16:36.874Z,28.70
2022-12-01T06:19:50.053Z,53.43
2022-12-01T06:23:05.278Z,30.60
2022-12-01T06:26:09.973Z,31.43
2022-12-01T06:29:22.316Z,38.17
2022-12-01T06:32:29.570Z,34.40
2022-12-01T06:35:42.291Z,39.10
2022-12-01T06:39:03.018Z,32.20
2022-12-01T06:42:17.384Z,62.33
2022-12-01T06:45:25.613Z,38.30
2022-12-01T06:48:41.487Z,32.80
2022-12-01T06:51:43.635Z,31.70
2022-12-01T06:54:47.933Z,35.80
2022-12-01T06:57:50.557Z,33.00
2022-12-01T07:01:01.445Z,29.00
2022-12-01T07:04:08.577Z,32.97
2022-12-01T07:07:16.420Z,29.40
2022-12-01T07:10:19.105Z,30.10
2022-12-01T07:13:21.147Z,29.17
2022-12-01T07:16:23.602Z,29.80
2022-12-01T07:19:26.066Z,25.10
2022-12-01T07:22:32.593Z,24.37
2022-12-01T07:25:35.096Z,23.43
2022-12-01T07:28:37.241Z,21.60
2022-12-01T07:31:44.601Z,26.93
2022-12-01T07:34:46.536Z,26.97
2022-12-01T07:37:48.462Z,33.77
2022-12-01T07:41:13.833Z,24.00
2022-12-01T07:44:16.430Z,22.43
2022-12-01T07:47:27.220Z,21.17
2022-12-01T07:50:48.990Z,20.60
2022-12-01T07:53:59.420Z,19.17
2022-12-01T07:57:20.534Z,21.90
2022-12-01T08:00:49.126Z,23.33
2022-12-01T08:03:58.057Z,26.20
2022-12-01T08:07:02.991Z,22.87
2022-12-01T08:10:13.062Z,20.60
2022-12-01T08:13:17.678Z,23.70
2022-12-01T08:16:26.981Z,25.70
2022-12-01T08:22:45.720Z,49.97
2022-12-01T08:25:57.527Z,57.37
2022-12-01T08:29:10.073Z,54.07
2022-12-01T08:32:37.712Z,25.60
2022-12-01T08:35:39.831Z,62.83
2022-12-01T08:38:53.582Z,20.93
2022-12-01T08:42:01.181Z,44.63
2022-12-01T08:45:09.005Z,42.83
2022-12-01T08:48:14.306Z,28.90
2022-12-01T08:51:36.376Z,30.60
2022-12-01T08:54:47.269Z,22.63
2022-12-01T08:57:57.809Z,23.07
2022-12-01T09:04:51.233Z,19.50
2022-12-01T09:13:51.342Z,19.90
2022-12-01T09:17:01.883Z,18.90
2022-12-01T09:20:04.732Z,20.83
2022-12-01T09:23:11.937Z,17.70
2022-12-01T09:26:19.015Z,20.97
2022-12-01T09:29:47.362Z,21.70
2022-12-01T09:32:49.765Z,19.10
2022-12-01T09:35:51.830Z,18.07
2022-12-01T09:38:54.202Z,17.90
2022-12-01T09:42:08.792Z,18.80
2022-12-01T09:45:25.823Z,20.33
2022-12-01T09:48:50.166Z,21.63
2022-12-01T09:51:55.043Z,20.00
2022-12-01T09:54:59.084Z,18.87
2022-12-01T09:58:04.067Z,19.83
2022-12-01T10:01:16.595Z,22.83
2022-12-01T10:04:33.989Z,21.60
2022-12-01T10:07:48.750Z,18.20
2022-12-01T10:10:56.033Z,16.00
2022-12-01T10:14:04.256Z,15.77
2022-12-01T10:17:42.085Z,20.60
2022-12-01T10:20:51.487Z,18.43
2022-12-01T10:24:19.257Z,17.60
2022-12-01T10:27:40.147Z,16.43
2022-12-01T10:30:50.382Z,15.57
2022-12-01T10:34:04.274Z,16.17
2022-12-01T10:37:06.674Z,16.00
2022-12-01T10:40:14.573Z,19.40
2022-12-01T10:43:16.622Z,16.87
2022-12-01T10:46:33.693Z,18.50
2022-12-01T10:49:40.742Z,15.77
2022-12-01T10:52:49.202Z,16.10
2022-12-01T10:56:12.560Z,16.80
2022-12-01T10:59:29.575Z,19.83
2022-12-01T11:02:32.200Z,19.17
2022-12-01T11:05:40.527Z,16.57
2022-12-01T11:08:48.377Z,15.13
2022-12-01T11:12:18.069Z,16.33
2022-12-01T11:15:29.152Z,15.27
2022-12-01T11:18:38.550Z,18.00
2022-12-01T11:21:52.049Z,17.90
2022-12-01T11:24:53.919Z,20.50
2022-12-01T11:28:01.883Z,19.83
2022-12-01T11:31:07.576Z,16.63
2022-12-01T11:34:24.328Z,21.97
2022-12-01T11:37:33.131Z,16.57
2022-12-01T11:41:15.470Z,19.17
2022-12-01T11:44:50.428Z,20.87
2022-12-01T11:48:36.801Z,28.70
2022-12-01T11:51:39.292Z,18.90
2022-12-01T11:55:13.456Z,21.53
2022-12-01T11:58:15.730Z,19.20
2022-12-01T12:01:29.734Z,17.20
2022-12-01T12:04:56.753Z,17.93
2022-12-01T12:08:20.532Z,20.97
2022-12-01T12:11:27.725Z,17.13
2022-12-01T12:14:52.256Z,17.83
2022-12-01T12:18:24.403Z,16.30
2022-12-01T12:22:00.770Z,18.87
2022-12-01T12:25:11.535Z,19.70
2022-12-01T12:28:19.600Z,21.38
2022-12-01T12:31:42.163Z,18.20
2022-12-01T12:35:26.077Z,23.70
2022-12-01T12:38:45.002Z,20.27
2022-12-01T12:41:52.104Z,22.43
2022-12-01T12:45:26.116Z,24.80
2022-12-01T12:49:18.017Z,26.07
2022-12-01T12:52:19.716Z,22.23
2022-12-01T12:55:24.808Z,24.53
2022-12-01T12:58:31.408Z,23.53
2022-12-01T13:01:49.585Z,24.70
2022-12-01T13:05:00.042Z,26.00
2022-12-01T13:08:19.992Z,25.27
2022-12-01T13:11:50.930Z,27.50
2022-12-01T13:15:01.233Z,22.70
2022-12-01T13:18:13.729Z,27.17
2022-12-01T13:21:24.887Z,25.93
2022-12-01T13:24:31.582Z,28.20
2022-12-01T13:27:40.337Z,25.97
2022-12-01T13:31:09.177Z,25.40
2022-12-01T13:34:35.284Z,28.80
2022-12-01T13:37:41.090Z,23.70
2022-12-01T13:40:53.252Z,30.40
2022-12-01T13:44:24.484Z,26.93
2022-12-01T13:47:40.052Z,26.20
2022-12-01T13:51:20.009Z,28.13
2022-12-01T13:54:30.471Z,24.43
2022-12-01T13:58:54.675Z,27.13
2022-12-01T14:08:01.615Z,27.97
2022-12-01T14:12:09.888Z,27.40
2022-12-01T14:15:31.439Z,28.80
2022-12-01T14:18:57.579Z,26.77
2022-12-01T14:22:49.626Z,27.83
2022-12-01T14:26:22.476Z,24.27
2022-12-01T14:29:28.865Z,26.30
2022-12-01T14:32:39.403Z,23.43
2022-12-01T14:35:45.098Z,32.40
2022-12-01T14:38:48.250Z,26.90
2022-12-01T14:42:04.377Z,24.57
2022-12-01T14:45:10.845Z,25.13
2022-12-01T14:48:20.114Z,24.57
2022-12-01T14:51:31.745Z,25.33
2022-12-01T14:54:42.968Z,25.73
2022-12-01T14:58:06.414Z,23.50
2022-12-01T15:01:11.440Z,24.53
2022-12-01T15:04:13.186Z,20.80
2022-12-01T15:07:29.610Z,24.87
2022-12-01T15:10:37.060Z,24.47
2022-12-01T15:13:54.992Z,20.90
2022-12-01T15:17:02.608Z,29.20
2022-12-01T15:20:32.043Z,26.87
2022-12-01T15:23:33.887Z,24.80
2022-12-01T15:27:31.848Z,33.47
2022-12-01T15:30:21.223Z,24.83
2022-12-01T15:33:48.172Z,20.73
2022-12-01T15:36:52.696Z,25.53
2022-12-01T15:40:47.838Z,27.77
2022-12-01T15:43:43.179Z,26.27
2022-12-01T15:46:50.745Z,29.13
2022-12-01T15:49:52.685Z,29.23
2022-12-01T15:52:54.654Z,28.80
2022-12-01T15:55:59.307Z,27.93
2022-12-01T15:59:07.058Z,32.17
2022-12-01T16:02:32.420Z,26.90
2022-12-01T16:05:38.608Z,32.07
2022-12-01T16:08:57.497Z,27.20
2022-12-01T16:17:01.931Z,25.30
2022-12-01T16:20:47.061Z,32.40
2022-12-01T16:23:49.333Z,27.67
2022-12-01T16:26:55.609Z,27.60
2022-12-01T16:30:02.784Z,28.70
2022-12-01T16:33:16.985Z,31.03
2022-12-01T16:36:26.674Z,29.30
2022-12-01T16:39:28.674Z,29.50
2022-12-01T16:42:39.223Z,29.90
2022-12-01T16:45:44.835Z,26.80
2022-12-01T16:48:46.696Z,30.43
2022-12-01T16:51:57.058Z,35.17
2022-12-01T16:55:06.190Z,32.13
2022-12-01T16:58:10.710Z,35.57
2022-12-01T17:01:12.696Z,29.90
2022-12-01T17:04:17.836Z,30.63
2022-12-01T17:07:19.826Z,33.33
2022-12-01T17:10:23.040Z,27.90
2022-12-01T17:13:25.301Z,35.60
2022-12-01T17:20:11.251Z,28.13
2022-12-01T17:23:13.166Z,32.00
2022-12-01T17:26:16.840Z,33.20
2022-12-01T17:29:18.631Z,32.17
2022-12-01T17:32:20.492Z,33.90
2022-12-01T17:35:22.440Z,27.60
2022-12-01T17:38:24.290Z,31.17
2022-12-01T17:41:32.108Z,30.20
2022-12-01T17:44:34.127Z,34.20
2022-12-01T17:47:35.923Z,35.50
2022-12-01T17:50:38.260Z,33.37
2022-12-01T17:53:40.299Z,37.30
2022-12-01T17:56:42.717Z,35.53
2022-12-01T17:59:44.987Z,33.20
2022-12-01T18:02:47.647Z,34.27
2022-12-01T18:06:01.135Z,36.17
2022-12-01T18:09:03.704Z,35.97
2022-12-01T18:12:08.267Z,35.57
2022-12-01T18:15:10.947Z,35.67
2022-12-01T18:18:12.690Z,32.33
2022-12-01T18:21:16.865Z,40.13
2022-12-01T18:24:21.217Z,41.00
2022-12-01T18:27:24.281Z,44.43
2022-12-01T18:30:36.998Z,42.60
2022-12-01T18:33:44.530Z,39.63
2022-12-01T18:36:47.052Z,35.80
2022-12-01T18:39:48.812Z,35.30
2022-12-01T18:42:50.753Z,37.97
2022-12-01T18:45:52.934Z,38.80
2022-12-01T18:49:02.284Z,36.50
2022-12-01T18:52:04.905Z,38.83
2022-12-01T18:55:12.911Z,41.47
2022-12-01T18:58:21.650Z,40.20
2022-12-01T19:05:38.834Z,38.47
2022-12-01T19:08:50.197Z,46.53
2022-12-01T19:12:18.080Z,45.83
2022-12-01T19:16:19.912Z,39.47
2022-12-01T19:19:58.246Z,39.30
2022-12-01T19:23:18.050Z,41.33
2022-12-01T19:26:24.192Z,39.07
2022-12-01T19:29:26.661Z,39.33
2022-12-01T19:32:40.199Z,42.37
2022-12-01T19:35:42.452Z,40.20
2022-12-01T19:38:48.526Z,45.33
2022-12-01T19:45:22.789Z,41.97
2022-12-01T19:49:17.543Z,35.63
2022-12-01T19:52:22.711Z,40.37
2022-12-01T19:55:24.690Z,46.47
2022-12-01T19:58:29.105Z,43.53
2022-12-01T20:01:35.750Z,42.43
2022-12-01T20:04:41.043Z,42.43
2022-12-01T20:07:57.225Z,40.83
2022-12-01T20:11:15.293Z,41.30
2022-12-01T20:14:26.156Z,45.53
2022-12-01T20:17:46.347Z,41.30
2022-12-01T20:20:48.500Z,44.60
2022-12-01T20:24:02.039Z,37.63
2022-12-01T20:27:10.269Z,41.83
2022-12-01T20:30:18.844Z,45.23
2022-12-01T20:33:42.269Z,41.93
2022-12-01T20:36:53.865Z,45.50
2022-12-01T20:39:56.122Z,38.83
2022-12-01T20:42:58.521Z,42.53
2022-12-01T20:46:01.339Z,39.43
2022-12-01T20:49:04.029Z,47.83
2022-12-01T20:52:09.295Z,43.33
2022-12-01T20:55:11.900Z,42.00
2022-12-01T21:02:16.385Z,42.33
2022-12-01T21:05:18.072Z,42.50
2022-12-01T21:08:22.695Z,47.60
2022-12-01T21:12:03.736Z,42.33
2022-12-01T21:15:25.264Z,42.87
2022-12-01T21:18:35.757Z,40.70
2022-12-01T21:21:43.643Z,45.70
2022-12-01T21:24:49.867Z,52.43
2022-12-01T21:27:55.629Z,44.77
2022-12-01T21:31:12.359Z,50.10
2022-12-01T21:34:22.212Z,43.67
2022-12-01T21:37:25.601Z,47.00
2022-12-01T21:40:30.726Z,46.17
2022-12-01T21:43:46.546Z,44.20
2022-12-01T21:46:53.314Z,52.17
2022-12-01T21:50:02.921Z,47.20
2022-12-01T21:53:18.730Z,41.27
2022-12-01T21:56:24.517Z,43.33
2022-12-01T21:59:27.889Z,50.60
2022-12-01T22:02:52.921Z,46.27
2022-12-01T22:06:29.409Z,46.10
2022-12-01T22:09:36.724Z,45.33
2022-12-01T22:12:41.095Z,49.80
2022-12-01T22:15:46.219Z,51.53
2022-12-01T22:18:52.493Z,48.60
2022-12-01T22:22:24.179Z,50.67
2022-12-01T22:25:27.665Z,45.63
2022-12-01T22:28:58.159Z,39.87
2022-12-01T22:32:26.086Z,54.47
2022-12-01T22:35:39.068Z,49.57
2022-12-01T22:38:47.213Z,45.73
2022-12-01T22:41:50.096Z,45.00
2022-12-01T22:44:52.796Z,45.93
2022-12-01T22:48:03.017Z,42.40
2022-12-01T22:51:14.128Z,43.87
2022-12-01T22:54:15.967Z,54.67
2022-12-01T22:57:33.187Z,43.33
2022-12-01T23:00:35.259Z,45.03
2022-12-01T23:03:37.127Z,48.30
2022-12-01T23:07:01.856Z,48.90
2022-12-01T23:10:12.005Z,45.57
2022-12-01T23:13:23.140Z,47.10
2022-12-01T23:16:34.343Z,40.00
2022-12-01T23:19:39.058Z,45.07
2022-12-01T23:22:43.879Z,51.87
2022-12-01T23:25:50.837Z,43.10
2022-12-01T23:28:53.123Z,45.60
2022-12-01T23:31:55.525Z,48.50
2022-12-01T23:35:00.346Z,44.03
2022-12-01T23:38:02.418Z,45.40
2022-12-01T23:41:33.335Z,43.73
2022-12-01T23:44:45.573Z,51.37
2022-12-01T23:47:48.214Z,45.63
2022-12-01T23:54:19.436Z,53.03
2022-12-01T23:57:26.624Z,46.93
